Portada
METAR-TAF:

METAR-TAF

Aeropuertos :

Iqaluit, Nunavut, Canadá

Aeropuerto de Iqaluit

latitud: 63-45N, longitud: 068-33W, altitud: 34 m

Observación

El informe se hizo hace 48 minutos, a las 07:00 UTC
Viento 3 kt del oeste-noroeste
Temperatura 1°C
Humedad 86%
Presión 1014 hPa
Visibilidad: 24.1 km
Cielo despejado

METAR: CYFB 200700Z 30003KT 15SM SKC 01/M01 A2993 RMK SLP140

Hora: 03:48 (07:48 UTC)

Pronóstico

El informe se hizo hace 2 horas y 10 minutos, a las 05:38 UTC
Pronóstico válido del 20 a las 06 UTC al 21 a las 06 UTC
Viento 3 kt con dirección variable
Visibilidad: 10 km
Cielo despejado
Evolucionando progresivamente
del 20 a las 18 UTC al 20 a las 20 UTC
Viento 8 kt del norte-noroeste

TAF: CYFB 200538Z 2006/2106 VRB03KT P6SM SKC BECMG 2018/2020 34008KT RMK NXT FCST BY 201200Z

Observaciones y pronósticos meteorológicos de más de 4000 aeropuertos (mensajes METAR y TAF).

Los puntos amarillos y rojos representan las estaciones disponibles.

Ponga el ratón en el punto deseado para ver el nombre de la estación.

Haga clic para ver las observaciones y los pronósticos meteorológicos.

Para cambiar el mapa : haga clic en los botones verdes con una cruz de color negro para hacer un zoom, en el botón verde con un guión para alejar o en las flechas verdes para mapas adyacentes.


METAR-TAF: